Date,TemperatureHighF,TemperatureAvgF,TemperatureLowF,DewpointHighF,DewpointAvgF,DewpointLowF,HumidityHigh,HumidityAvg,HumidityLow,PressureMaxIn,PressureMinIn,WindSpeedMaxMPH,WindSpeedAvgMPH,GustSpeedMaxMPH,PrecipitationSumIn
2013-1-1,42.2,39.1,30.3,28.9,25.3,14.4,68,58,46,30.02,29.84,8,4,20,0.00
2013-1-2,33.5,28.5,25.0,15.3,12.3,9.0,60,51,43,30.20,30.00,10,4,20,0.00
2013-1-3,34.3,28.8,23.3,18.2,14.9,13.2,71,56,43,30.21,30.09,6,2,16,0.00
2013-1-4,37.5,33.6,28.2,21.7,19.8,18.3,66,57,49,30.13,29.99,10,4,20,0.00
2013-1-5,42.1,34.2,30.1,22.7,20.2,17.4,71,57,42,30.32,30.05,8,2,17,0.00
2013-1-6,47.4,37.7,32.4,34.0,28.7,22.1,92,71,46,30.26,30.00,5,1,14,0.07
2013-1-7,47.0,37.6,29.0,29.0,25.3,21.3,79,63,37,30.42,30.07,8,2,18,0.00
2013-1-8,50.1,36.8,26.6,31.5,27.8,22.5,88,72,48,30.45,30.36,4,1,15,0.00
2013-1-9,52.9,44.3,31.5,40.2,35.1,27.9,91,71,50,30.41,30.15,6,1,19,0.00
2013-1-10,49.6,43.5,35.8,30.8,25.4,21.9,68,50,34,30.55,30.27,9,4,21,0.00
2013-1-11,47.9,44.3,36.5,45.7,37.9,26.2,94,78,60,30.54,30.07,4,1,11,0.38
2013-1-12,48.2,46.3,44.5,46.0,44.7,43.2,96,94,89,30.16,30.06,5,2,12,0.38
2013-1-13,51.6,46.1,41.8,50.2,44.4,40.7,96,94,86,30.16,30.02,2,1,11,0.01
2013-1-14,58.7,51.6,40.8,55.7,45.0,30.4,97,80,44,30.29,29.95,7,2,16,0.17
2013-1-15,40.6,39.0,37.0,36.9,31.0,26.8,90,74,60,30.35,30.20,4,2,11,0.40
2013-1-16,42.2,38.0,35.9,40.6,35.9,32.6,94,92,84,30.21,29.80,7,2,16,0.82
2013-1-17,43.3,39.6,36.2,35.6,31.5,27.0,90,73,54,30.10,29.94,0,0,7,0.01
2013-1-18,37.5,31.1,25.6,28.6,13.9,2.9,72,50,30,30.52,29.99,1,0,5,0.02
2013-1-19,53.5,40.6,27.6,30.6,21.7,10.9,64,48,30,30.44,29.96,7,3,18,0.00
2013-1-20,56.2,45.3,32.8,29.2,22.9,11.1,59,43,24,30.05,29.73,11,5,30,0.00
2013-1-21,34.1,30.3,25.7,25.6,14.2,7.6,90,52,36,30.12,29.84,7,2,16,0.00
2013-1-22,25.6,19.6,14.0,19.7,-0.4,-7.8,78,41,29,30.25,29.85,11,7,27,0.00
2013-1-23,20.0,14.4,9.9,4.2,-2.5,-7.5,74,47,34,30.29,30.19,9,4,20,0.00
2013-1-24,24.5,17.4,9.7,4.6,-0.4,-8.9,74,48,23,30.44,30.14,12,5,25,0.00
2013-1-25,25.3,18.0,12.8,15.9,4.4,-4.6,85,57,37,30.45,30.08,6,2,15,0.00
2013-1-26,27.6,20.2,12.8,11.7,7.8,4.0,85,61,38,30.39,30.06,10,4,21,0.01
2013-1-27,33.8,24.0,15.1,14.6,9.6,5.0,72,55,36,30.55,30.39,10,3,18,0.00
2013-1-28,36.2,30.4,21.4,34.4,25.1,13.3,93,81,65,30.52,30.03,2,1,10,0.10
2013-1-29,53.5,42.7,34.9,44.3,38.7,33.1,93,86,63,30.16,30.02,3,1,9,0.00
2013-1-30,60.5,51.0,43.9,56.1,48.3,42.8,96,91,81,30.07,29.41,7,3,25,0.02
2013-1-31,59.6,45.7,30.1,57.6,30.6,8.5,95,58,31,29.85,29.12,14,8,34,0.49